sensor_id;sensor_type;location;lat;lon;timestamp;pressure;altitude;pressure_sealevel;temperature;humidity
58843;BME280;44614;54.356;10.100;2023-04-24T00:02:15;99775.31;;;11.58;93.09
58843;BME280;44614;54.356;10.100;2023-04-24T00:04:41;99774.50;;;11.58;94.30
58843;BME280;44614;54.356;10.100;2023-04-24T00:07:09;99777.50;;;11.56;94.57
58843;BME280;44614;54.356;10.100;2023-04-24T00:09:34;99769.50;;;11.55;95.46
58843;BME280;44614;54.356;10.100;2023-04-24T00:12:00;99765.09;;;11.54;96.32
58843;BME280;44614;54.356;10.100;2023-04-24T00:14:27;99755.19;;;11.53;96.35
58843;BME280;44614;54.356;10.100;2023-04-24T00:16:52;99764.50;;;11.52;96.71
58843;BME280;44614;54.356;10.100;2023-04-24T00:19:18;99767.53;;;11.50;96.42
58843;BME280;44614;54.356;10.100;2023-04-24T00:21:46;99769.44;;;11.50;96.21
58843;BME280;44614;54.356;10.100;2023-04-24T00:24:11;99764.19;;;11.48;96.05
58843;BME280;44614;54.356;10.100;2023-04-24T00:26:36;99768.84;;;11.47;96.36
58843;BME280;44614;54.356;10.100;2023-04-24T00:29:01;99766.09;;;11.47;96.44
58843;BME280;44614;54.356;10.100;2023-04-24T00:31:27;99769.94;;;11.46;96.73
58843;BME280;44614;54.356;10.100;2023-04-24T00:33:52;99765.28;;;11.47;97.24
58843;BME280;44614;54.356;10.100;2023-04-24T00:36:17;99766.38;;;11.46;97.25
58843;BME280;44614;54.356;10.100;2023-04-24T00:38:44;99779.28;;;11.45;97.69
58843;BME280;44614;54.356;10.100;2023-04-24T00:41:09;99774.03;;;11.44;97.44
58843;BME280;44614;54.356;10.100;2023-04-24T00:43:35;99767.97;;;11.42;97.31
58843;BME280;44614;54.356;10.100;2023-04-24T00:46:00;99765.22;;;11.42;96.82
58843;BME280;44614;54.356;10.100;2023-04-24T00:48:26;99756.16;;;11.41;97.78
58843;BME280;44614;54.356;10.100;2023-04-24T00:50:52;99761.06;;;11.39;97.80
58843;BME280;44614;54.356;10.100;2023-04-24T00:53:17;99750.06;;;11.39;98.16
58843;BME280;44614;54.356;10.100;2023-04-24T00:55:43;99739.00;;;11.34;99.18
58843;BME280;44614;54.356;10.100;2023-04-24T00:58:08;99738.41;;;11.32;99.57
58843;BME280;44614;54.356;10.100;2023-04-24T01:00:33;99741.66;;;11.29;100.00
58843;BME280;44614;54.356;10.100;2023-04-24T01:02:59;99744.97;;;11.26;100.00
58843;BME280;44614;54.356;10.100;2023-04-24T01:05:26;99750.13;;;11.22;100.00
58843;BME280;44614;54.356;10.100;2023-04-24T01:07:52;99739.03;;;11.17;100.00
58843;BME280;44614;54.356;10.100;2023-04-24T01:10:17;99743.66;;;11.12;100.00
58843;BME280;44614;54.356;10.100;2023-04-24T01:12:42;99733.44;;;11.07;100.00
58843;BME280;44614;54.356;10.100;2023-04-24T01:15:08;99723.75;;;11.05;100.00
58843;BME280;44614;54.356;10.100;2023-04-24T01:17:33;99724.25;;;11.02;100.00
58843;BME280;44614;54.356;10.100;2023-04-24T01:19:59;99711.03;;;10.98;100.00
58843;BME280;44614;54.356;10.100;2023-04-24T01:22:25;99710.69;;;10.95;100.00
58843;BME280;44614;54.356;10.100;2023-04-24T01:24:50;99712.06;;;10.92;100.00
58843;BME280;44614;54.356;10.100;2023-04-24T01:27:16;99701.91;;;10.93;100.00
58843;BME280;44614;54.356;10.100;2023-04-24T01:29:41;99705.22;;;10.95;100.00
58843;BME280;44614;54.356;10.100;2023-04-24T01:32:06;99698.88;;;10.94;100.00
58843;BME280;44614;54.356;10.100;2023-04-24T01:34:32;99691.75;;;10.93;100.00
58843;BME280;44614;54.356;10.100;2023-04-24T01:36:57;99698.56;;;10.91;100.00
58843;BME280;44614;54.356;10.100;2023-04-24T01:39:23;99701.56;;;10.89;100.00
58843;BME280;44614;54.356;10.100;2023-04-24T01:41:50;99697.41;;;10.87;100.00
